sensor_id;sensor_type;location;lat;lon;timestamp;pressure;altitude;pressure_sealevel;temperature;humidity
38227;BME280;24026;49.446;8.576;2023-08-31T00:01:50;99913.38;;;21.98;52.54
38227;BME280;24026;49.446;8.576;2023-08-31T00:06:34;99912.59;;;21.97;52.40
38227;BME280;24026;49.446;8.576;2023-08-31T00:08:55;99918.34;;;21.96;52.33
38227;BME280;24026;49.446;8.576;2023-08-31T00:11:15;99910.53;;;21.94;52.51
38227;BME280;24026;49.446;8.576;2023-08-31T00:13:36;99918.66;;;21.94;52.51
38227;BME280;24026;49.446;8.576;2023-08-31T00:15:57;99914.34;;;21.93;52.63
38227;BME280;24026;49.446;8.576;2023-08-31T00:18:17;99918.66;;;21.94;52.64
38227;BME280;24026;49.446;8.576;2023-08-31T00:20:38;99916.28;;;21.93;52.49
38227;BME280;24026;49.446;8.576;2023-08-31T00:22:59;99910.88;;;21.93;52.66
38227;BME280;24026;49.446;8.576;2023-08-31T00:25:19;99912.78;;;21.92;52.38
38227;BME280;24026;49.446;8.576;2023-08-31T00:27:40;99912.78;;;21.92;52.47
38227;BME280;24026;49.446;8.576;2023-08-31T00:30:01;99913.91;;;21.91;52.50
38227;BME280;24026;49.446;8.576;2023-08-31T00:32:22;99921.22;;;21.91;52.48
38227;BME280;24026;49.446;8.576;2023-08-31T00:34:44;99923.16;;;21.90;52.49
38227;BME280;24026;49.446;8.576;2023-08-31T00:37:04;99927.75;;;21.90;52.55
38227;BME280;24026;49.446;8.576;2023-08-31T00:39:25;99933.16;;;21.90;52.38
38227;BME280;24026;49.446;8.576;2023-08-31T00:41:45;99928.09;;;21.88;52.34
38227;BME280;24026;49.446;8.576;2023-08-31T00:44:06;99923.47;;;21.89;52.45
38227;BME280;24026;49.446;8.576;2023-08-31T00:46:27;99930.00;;;21.88;52.48
38227;BME280;24026;49.446;8.576;2023-08-31T00:48:48;99926.50;;;21.87;52.51
38227;BME280;24026;49.446;8.576;2023-08-31T00:51:08;99932.25;;;21.86;52.38
38227;BME280;24026;49.446;8.576;2023-08-31T00:53:30;99933.03;;;21.86;52.28
38227;BME280;24026;49.446;8.576;2023-08-31T00:55:51;99926.03;;;21.85;52.46
38227;BME280;24026;49.446;8.576;2023-08-31T00:58:11;99933.34;;;21.84;52.57
38227;BME280;24026;49.446;8.576;2023-08-31T01:06:05;99928.13;;;21.79;52.55
38227;BME280;24026;49.446;8.576;2023-08-31T01:08:43;99932.78;;;21.79;52.67
38227;BME280;24026;49.446;8.576;2023-08-31T01:11:13;99939.75;;;21.80;52.61
38227;BME280;24026;49.446;8.576;2023-08-31T01:13:41;99934.34;;;21.80;52.57
38227;BME280;24026;49.446;8.576;2023-08-31T01:16:05;99930.84;;;21.79;52.37
38227;BME280;24026;49.446;8.576;2023-08-31T01:18:27;99945.47;;;21.78;52.35
38227;BME280;24026;49.446;8.576;2023-08-31T01:23:56;99946.94;;;21.76;52.52
38227;BME280;24026;49.446;8.576;2023-08-31T01:26:18;99950.09;;;21.78;52.58
38227;BME280;24026;49.446;8.576;2023-08-31T01:28:39;99948.53;;;21.77;52.58
38227;BME280;24026;49.446;8.576;2023-08-31T01:31:04;99943.13;;;21.77;52.40
38227;BME280;24026;49.446;8.576;2023-08-31T01:33:25;99953.13;;;21.76;52.57
38227;BME280;24026;49.446;8.576;2023-08-31T01:35:49;99953.13;;;21.76;52.67
38227;BME280;24026;49.446;8.576;2023-08-31T01:38:17;99958.53;;;21.76;52.77
38227;BME280;24026;49.446;8.576;2023-08-31T01:43:19;99957.28;;;21.74;52.45
38227;BME280;24026;49.446;8.576;2023-08-31T01:45:42;99952.66;;;21.74;52.64
38227;BME280;24026;49.446;8.576;2023-08-31T01:48:03;99955.38;;;21.74;52.87
38227;BME280;24026;49.446;8.576;2023-08-31T01:50:23;99960.00;;;21.74;52.52
38227;BME280;24026;49.446;8.576;2023-08-31T01:52:43;99962.22;;;21.72;52.66
38227;BME280;24026;49.446;8.576;2023-08-31T01:55:05;99971.94;;;21.73;52.74
38227;BME280;24026;49.446;8.576;2023-08-31T01:57:26;99979.25;;;21.72;52.82
38227;BME280;24026;49.446;8.576;2023-08-31T01:59:46;99970.34;;;21.72;52.62
38227;BME280;24026;49.446;8.576;2023-08-31T02:02:07;99972.25;;;21.71;52.58
38227;BME280;24026;49.446;8.576;2023-08-31T02:04:27;99976.88;;;21.71;52.52
38227;BME280;24026;49.446;8.576;2023-08-31T02:06:47;99971.78;;;21.69;52.73
38227;BME280;24026;49.446;8.576;2023-08-31T02:09:08;99969.88;;;21.70;52.54
38227;BME280;24026;49.446;8.576;2023-08-31T02:11:28;99980.22;;;21.68;52.70
38227;BME280;24026;49.446;8.576;2023-08-31T02:13:49;99978.31;;;21.68;52.43
38227;BME280;24026;49.446;8.576;2023-08-31T02:16:09;99981.34;;;21.67;52.41
38227;BME280;24026;49.446;8.576;2023-08-31T02:18:29;99976.75;;;21.67;52.41
38227;BME280;24026;49.446;8.576;2023-08-31T02:20:52;99983.25;;;21.66;52.63
38227;BME280;24026;49.446;8.576;2023-08-31T02:23:13;99981.66;;;21.65;52.53
38227;BME280;24026;49.446;8.576;2023-08-31T02:25:34;99978.50;;;21.63;52.65
38227;BME280;24026;49.446;8.576;2023-08-31T02:27:54;99984.34;;;21.65;52.83
38227;BME280;24026;49.446;8.576;2023-08-31T02:30:15;99979.63;;;21.62;52.74
38227;BME280;24026;49.446;8.576;2023-08-31T02:32:36;99983.13;;;21.62;52.68
38227;BME280;24026;49.446;8.576;2023-08-31T02:34:57;99988.53;;;21.62;52.77
38227;BME280;24026;49.446;8.576;2023-08-31T02:37:17;99989.63;;;21.61;52.84
38227;BME280;24026;49.446;8.576;2023-08-31T02:39:37;99987.75;;;21.62;52.41
38227;BME280;24026;49.446;8.576;2023-08-31T02:41:58;99988.84;;;21.61;52.71
38227;BME280;24026;49.446;8.576;2023-08-31T02:44:18;99996.16;;;21.60;52.47
38227;BME280;24026;49.446;8.576;2023-08-31T02:46:39;99995.34;;;21.60;52.67
38227;BME280;24026;49.446;8.576;2023-08-31T02:48:59;99993.78;;;21.59;52.69
38227;BME280;24026;49.446;8.576;2023-08-31T02:51:19;99996.81;;;21.57;52.90
38227;BME280;24026;49.446;8.576;2023-08-31T02:53:40;99994.13;;;21.57;52.59
38227;BME280;24026;49.446;8.576;2023-08-31T02:56:00;99989.81;;;21.56;52.73
38227;BME280;24026;49.446;8.576;2023-08-31T02:58:21;99994.44;;;21.56;52.80
38227;BME280;24026;49.446;8.576;2023-08-31T03:00:41;99990.94;;;21.55;52.61
38227;BME280;24026;49.446;8.576;2023-08-31T03:03:03;99990.13;;;21.55;52.59
38227;BME280;24026;49.446;8.576;2023-08-31T03:05:23;100002.09;;;21.54;52.52
38227;BME280;24026;49.446;8.576;2023-08-31T03:07:44;99997.47;;;21.54;52.39
38227;BME280;24026;49.446;8.576;2023-08-31T03:10:04;99985.88;;;21.54;52.54
38227;BME280;24026;49.446;8.576;2023-08-31T03:12:25;100002.41;;;21.52;52.60
38227;BME280;24026;49.446;8.576;2023-08-31T03:14:45;100004.28;;;21.52;52.67
38227;BME280;24026;49.446;8.576;2023-08-31T03:17:06;100008.91;;;21.51;52.38
38227;BME280;24026;49.446;8.576;2023-08-31T03:19:26;100018.94;;;21.51;52.68
38227;BME280;24026;49.446;8.576;2023-08-31T03:21:46;100009.25;;;21.50;52.73
38227;BME280;24026;49.446;8.576;2023-08-31T03:24:07;100016.56;;;21.49;52.55
38227;BME280;24026;49.446;8.576;2023-08-31T03:26:27;100023.91;;;21.49;52.79
38227;BME280;24026;49.446;8.576;2023-08-31T03:28:48;100018.50;;;21.49;52.58
38227;BME280;24026;49.446;8.576;2023-08-31T03:31:08;100017.66;;;21.48;52.47
38227;BME280;24026;49.446;8.576;2023-08-31T03:33:28;100016.09;;;21.47;52.59
38227;BME280;24026;49.446;8.576;2023-08-31T03:35:49;100016.88;;;21.48;52.75
38227;BME280;24026;49.446;8.576;2023-08-31T03:38:09;100016.41;;;21.45;52.79
38227;BME280;24026;49.446;8.576;2023-08-31T03:40:30;100019.09;;;21.45;52.50
38227;BME280;24026;49.446;8.576;2023-08-31T03:42:51;100022.91;;;21.44;52.75
38227;BME280;24026;49.446;8.576;2023-08-31T03:45:12;100022.91;;;21.44;52.53
38227;BME280;24026;49.446;8.576;2023-08-31T03:47:33;100018.63;;;21.43;52.42
38227;BME280;24026;49.446;8.576;2023-08-31T03:49:53;100025.59;;;21.44;52.49
38227;BME280;24026;49.446;8.576;2023-08-31T03:52:14;100026.75;;;21.43;52.66
38227;BME280;24026;49.446;8.576;2023-08-31T03:54:34;100027.84;;;21.42;52.48
38227;BME280;24026;49.446;8.576;2023-08-31T03:56:54;100027.84;;;21.42;52.70
38227;BME280;24026;49.446;8.576;2023-08-31T03:59:16;100031.66;;;21.41;52.37
38227;BME280;24026;49.446;8.576;2023-08-31T04:01:36;100034.34;;;21.41;52.52
38227;BME280;24026;49.446;8.576;2023-08-31T04:03:57;100030.09;;;21.40;52.45
38227;BME280;24026;49.446;8.576;2023-08-31T04:06:17;100032.78;;;21.40;52.60
38227;BME280;24026;49.446;8.576;2023-08-31T04:08:37;100028.50;;;21.39;52.67
38227;BME280;24026;49.446;8.576;2023-08-31T04:10:58;100043.09;;;21.38;52.50
38227;BME280;24026;49.446;8.576;2023-08-31T04:13:18;100044.25;;;21.37;52.59
38227;BME280;24026;49.446;8.576;2023-08-31T04:15:39;100038.84;;;21.37;52.58
38227;BME280;24026;49.446;8.576;2023-08-31T04:17:59;100042.66;;;21.36;52.75
38227;BME280;24026;49.446;8.576;2023-08-31T04:20:20;100039.16;;;21.36;52.68
38227;BME280;24026;49.446;8.576;2023-08-31T04:22:40;100042.97;;;21.35;52.78
38227;BME280;24026;49.446;8.576;2023-08-31T04:25:00;100047.59;;;21.34;52.31
38227;BME280;24026;49.446;8.576;2023-08-31T04:27:21;100058.41;;;21.34;52.84
38227;BME280;24026;49.446;8.576;2023-08-31T04:29:41;100059.19;;;21.35;52.52
38227;BME280;24026;49.446;8.576;2023-08-31T04:32:02;100056.47;;;21.35;52.65
38227;BME280;24026;49.446;8.576;2023-08-31T04:34:23;100065.72;;;21.34;52.76
38227;BME280;24026;49.446;8.576;2023-08-31T04:36:43;100063.00;;;21.34;52.52
38227;BME280;24026;49.446;8.576;2023-08-31T04:39:03;100072.69;;;21.35;52.52
38227;BME280;24026;49.446;8.576;2023-08-31T04:41:25;100066.81;;;21.33;52.54
38227;BME280;24026;49.446;8.576;2023-08-31T04:43:47;100067.59;;;21.33;52.45
38227;BME280;24026;49.446;8.576;2023-08-31T04:46:10;100076.84;;;21.32;52.63
38227;BME280;24026;49.446;8.576;2023-08-31T04:48:32;100073.31;;;21.32;52.47
38227;BME280;24026;49.446;8.576;2023-08-31T04:50:56;100070.31;;;21.33;52.32
38227;BME280;24026;49.446;8.576;2023-08-31T04:53:19;100069.06;;;21.31;52.24
38227;BME280;24026;49.446;8.576;2023-08-31T04:55:41;100068.75;;;21.32;52.58
38227;BME280;24026;49.446;8.576;2023-08-31T04:58:02;100078.72;;;21.32;52.36
38227;BME280;24026;49.446;8.576;2023-08-31T05:00:23;100086.06;;;21.31;52.83
38227;BME280;24026;49.446;8.576;2023-08-31T05:02:43;100083.69;;;21.29;52.39
38227;BME280;24026;49.446;8.576;2023-08-31T05:05:04;100086.84;;;21.32;52.10
38227;BME280;24026;49.446;8.576;2023-08-31T05:07:25;100092.25;;;21.32;52.56
38227;BME280;24026;49.446;8.576;2023-08-31T05:09:46;100096.09;;;21.31;52.32
38227;BME280;24026;49.446;8.576;2023-08-31T05:12:06;100105.28;;;21.29;52.61
38227;BME280;24026;49.446;8.576;2023-08-31T05:14:28;100102.59;;;21.29;52.43
38227;BME280;24026;49.446;8.576;2023-08-31T05:16:49;100103.41;;;21.30;52.41
38227;BME280;24026;49.446;8.576;2023-08-31T05:19:09;100101.03;;;21.28;52.54
38227;BME280;24026;49.446;8.576;2023-08-31T05:21:29;100104.03;;;21.27;52.64
38227;BME280;24026;49.446;8.576;2023-08-31T05:23:50;100111.34;;;21.26;52.46
38227;BME280;24026;49.446;8.576;2023-08-31T05:26:11;100117.88;;;21.25;52.44
38227;BME280;24026;49.446;8.576;2023-08-31T05:28:33;100120.88;;;21.24;52.45
38227;BME280;24026;49.446;8.576;2023-08-31T05:30:55;100122.00;;;21.23;52.59
38227;BME280;24026;49.446;8.576;2023-08-31T05:33:19;100122.31;;;21.21;52.64
38227;BME280;24026;49.446;8.576;2023-08-31T05:35:41;100125.31;;;21.20;52.65
38227;BME280;24026;49.446;8.576;2023-08-31T05:38:01;100124.84;;;21.18;52.81
38227;BME280;24026;49.446;8.576;2023-08-31T05:40:23;100136.78;;;21.17;52.54
38227;BME280;24026;49.446;8.576;2023-08-31T05:42:44;100139.31;;;21.13;52.44
38227;BME280;24026;49.446;8.576;2023-08-31T05:45:05;100143.16;;;21.12;52.98
38227;BME280;24026;49.446;8.576;2023-08-31T05:47:25;100143.47;;;21.10;52.79
38227;BME280;24026;49.446;8.576;2023-08-31T05:49:46;100138.38;;;21.09;52.90
38227;BME280;24026;49.446;8.576;2023-08-31T05:52:06;100139.47;;;21.08;53.02
38227;BME280;24026;49.446;8.576;2023-08-31T05:54:26;100143.31;;;21.07;53.18
38227;BME280;24026;49.446;8.576;2023-08-31T05:56:47;100137.44;;;21.05;52.82
38227;BME280;24026;49.446;8.576;2023-08-31T05:59:08;100133.44;;;21.02;53.07
38227;BME280;24026;49.446;8.576;2023-08-31T06:01:28;100141.88;;;21.01;53.17
38227;BME280;24026;49.446;8.576;2023-08-31T06:03:49;100144.88;;;20.99;53.03
38227;BME280;24026;49.446;8.576;2023-08-31T06:06:09;100141.72;;;20.97;53.08
38227;BME280;24026;49.446;8.576;2023-08-31T06:08:31;100146.66;;;20.95;53.12
38227;BME280;24026;49.446;8.576;2023-08-31T06:10:54;100148.22;;;20.96;53.13
38227;BME280;24026;49.446;8.576;2023-08-31T06:13:22;100141.25;;;20.95;52.78
38227;BME280;24026;49.446;8.576;2023-08-31T06:15:54;100152.84;;;20.96;52.87
38227;BME280;24026;49.446;8.576;2023-08-31T06:18:15;100156.31;;;20.96;53.03
38227;BME280;24026;49.446;8.576;2023-08-31T06:20:37;100150.59;;;20.98;53.18
38227;BME280;24026;49.446;8.576;2023-08-31T06:22:59;100157.59;;;20.99;53.05
38227;BME280;24026;49.446;8.576;2023-08-31T06:25:21;100161.56;;;21.01;53.18
38227;BME280;24026;49.446;8.576;2023-08-31T06:27:42;100159.06;;;21.05;52.98
38227;BME280;24026;49.446;8.576;2023-08-31T06:30:04;100159.84;;;21.05;52.87
38227;BME280;24026;49.446;8.576;2023-08-31T06:32:26;100169.19;;;21.08;52.70
38227;BME280;24026;49.446;8.576;2023-08-31T06:34:50;100166.19;;;21.01;53.18
38227;BME280;24026;49.446;8.576;2023-08-31T06:37:10;100173.03;;;21.07;52.78
38227;BME280;24026;49.446;8.576;2023-08-31T06:39:31;100178.91;;;21.09;52.77
38227;BME280;24026;49.446;8.576;2023-08-31T06:41:53;100172.88;;;21.12;52.69
38227;BME280;24026;49.446;8.576;2023-08-31T06:44:15;100177.13;;;21.13;53.16
38227;BME280;24026;49.446;8.576;2023-08-31T06:46:37;100181.44;;;21.14;52.66
38227;BME280;24026;49.446;8.576;2023-08-31T06:48:58;100174.13;;;21.15;52.98
38227;BME280;24026;49.446;8.576;2023-08-31T06:51:18;100187.31;;;21.16;53.18
38227;BME280;24026;49.446;8.576;2023-08-31T06:53:43;100185.09;;;21.18;52.95
38227;BME280;24026;49.446;8.576;2023-08-31T06:56:07;100186.38;;;21.21;52.86
38227;BME280;24026;49.446;8.576;2023-08-31T06:58:27;100189.88;;;21.21;52.87
38227;BME280;24026;49.446;8.576;2023-08-31T07:00:49;100191.47;;;21.22;52.79
38227;BME280;24026;49.446;8.576;2023-08-31T07:03:11;100193.84;;;21.24;52.89
38227;BME280;24026;49.446;8.576;2023-08-31T07:05:41;100193.53;;;21.25;52.88
38227;BME280;24026;49.446;8.576;2023-08-31T07:08:02;100196.25;;;21.25;53.10
38227;BME280;24026;49.446;8.576;2023-08-31T07:10:22;100203.22;;;21.26;52.95
38227;BME280;24026;49.446;8.576;2023-08-31T07:12:45;100206.09;;;21.30;52.71
38227;BME280;24026;49.446;8.576;2023-08-31T07:15:17;100206.56;;;21.32;52.51
38227;BME280;24026;49.446;8.576;2023-08-31T07:17:38;100201.94;;;21.33;52.56
38227;BME280;24026;49.446;8.576;2023-08-31T07:19:59;100208.97;;;21.34;52.68
38227;BME280;24026;49.446;8.576;2023-08-31T07:22:20;100207.81;;;21.35;52.62
38227;BME280;24026;49.446;8.576;2023-08-31T07:24:41;100203.25;;;21.35;52.60
38227;BME280;24026;49.446;8.576;2023-08-31T07:27:05;100213.72;;;21.37;52.59
38227;BME280;24026;49.446;8.576;2023-08-31T07:29:25;100203.72;;;21.37;52.72
38227;BME280;24026;49.446;8.576;2023-08-31T07:31:46;100198.31;;;21.37;52.55
38227;BME280;24026;49.446;8.576;2023-08-31T07:34:06;100199.88;;;21.38;52.62
38227;BME280;24026;49.446;8.576;2023-08-31T07:36:27;100211.50;;;21.39;52.75
38227;BME280;24026;49.446;8.576;2023-08-31T07:38:48;100211.97;;;21.41;52.32
38227;BME280;24026;49.446;8.576;2023-08-31T07:41:08;100213.56;;;21.42;52.71
38227;BME280;24026;49.446;8.576;2023-08-31T07:43:30;100206.25;;;21.42;52.25
38227;BME280;24026;49.446;8.576;2023-08-31T07:45:51;100215.63;;;21.45;52.41
38227;BME280;24026;49.446;8.576;2023-08-31T07:48:11;100215.63;;;21.45;52.58
38227;BME280;24026;49.446;8.576;2023-08-31T07:50:31;100216.44;;;21.45;52.54
38227;BME280;24026;49.446;8.576;2023-08-31T07:52:52;100211.81;;;21.46;52.21
38227;BME280;24026;49.446;8.576;2023-08-31T07:55:12;100218.00;;;21.46;52.29
38227;BME280;24026;49.446;8.576;2023-08-31T07:57:33;100220.41;;;21.48;52.35
38227;BME280;24026;49.446;8.576;2023-08-31T07:59:54;100229.34;;;21.49;52.07
38227;BME280;24026;49.446;8.576;2023-08-31T08:02:14;100233.63;;;21.50;52.04
38227;BME280;24026;49.446;8.576;2023-08-31T08:04:36;100242.19;;;21.52;52.17
38227;BME280;24026;49.446;8.576;2023-08-31T08:06:56;100240.00;;;21.54;52.08
38227;BME280;24026;49.446;8.576;2023-08-31T08:09:17;100247.78;;;21.55;52.07
38227;BME280;24026;49.446;8.576;2023-08-31T08:11:38;100252.06;;;21.56;51.90
38227;BME280;24026;49.446;8.576;2023-08-31T08:13:58;100247.13;;;21.58;51.80
38227;BME280;24026;49.446;8.576;2023-08-31T08:16:19;100262.72;;;21.61;51.93
38227;BME280;24026;49.446;8.576;2023-08-31T08:18:39;100258.91;;;21.62;51.91
38227;BME280;24026;49.446;8.576;2023-08-31T08:21:00;100256.34;;;21.66;51.81
38227;BME280;24026;49.446;8.576;2023-08-31T08:23:20;100258.28;;;21.65;51.77
38227;BME280;24026;49.446;8.576;2023-08-31T08:25:42;100264.47;;;21.66;51.83
38227;BME280;24026;49.446;8.576;2023-08-31T08:28:03;100259.84;;;21.67;51.59
38227;BME280;24026;49.446;8.576;2023-08-31T08:30:24;100257.97;;;21.67;51.53
38227;BME280;24026;49.446;8.576;2023-08-31T08:32:44;100264.16;;;21.68;51.62
38227;BME280;24026;49.446;8.576;2023-08-31T08:35:05;100259.06;;;21.66;51.83
38227;BME280;24026;49.446;8.576;2023-08-31T08:37:25;100267.19;;;21.66;51.66
38227;BME280;24026;49.446;8.576;2023-08-31T08:39:50;100266.06;;;21.67;51.50
38227;BME280;24026;49.446;8.576;2023-08-31T08:42:17;100272.59;;;21.66;51.72
38227;BME280;24026;49.446;8.576;2023-08-31T08:44:39;100269.56;;;21.68;51.29
38227;BME280;24026;49.446;8.576;2023-08-31T08:47:00;100268.47;;;21.69;51.25
38227;BME280;24026;49.446;8.576;2023-08-31T08:49:21;100270.84;;;21.70;51.27
38227;BME280;24026;49.446;8.576;2023-08-31T08:51:43;100273.56;;;21.70;51.01
38227;BME280;24026;49.446;8.576;2023-08-31T08:54:05;100270.50;;;21.72;51.04
38227;BME280;24026;49.446;8.576;2023-08-31T08:56:26;100276.41;;;21.74;51.19
38227;BME280;24026;49.446;8.576;2023-08-31T08:58:46;100269.09;;;21.74;50.96
38227;BME280;24026;49.446;8.576;2023-08-31T09:01:07;100280.38;;;21.76;50.94
38227;BME280;24026;49.446;8.576;2023-08-31T09:03:27;100276.56;;;21.77;50.74
38227;BME280;24026;49.446;8.576;2023-08-31T09:05:48;100278.13;;;21.78;50.94
38227;BME280;24026;49.446;8.576;2023-08-31T09:08:09;100277.81;;;21.80;50.73
38227;BME280;24026;49.446;8.576;2023-08-31T09:10:38;100275.13;;;21.80;50.47
38227;BME280;24026;49.446;8.576;2023-08-31T09:13:00;100277.50;;;21.81;50.42
38227;BME280;24026;49.446;8.576;2023-08-31T09:15:20;100272.91;;;21.82;50.37
38227;BME280;24026;49.446;8.576;2023-08-31T09:17:42;100275.28;;;21.83;50.34
38227;BME280;24026;49.446;8.576;2023-08-31T09:20:04;100273.06;;;21.86;50.15
38227;BME280;24026;49.446;8.576;2023-08-31T09:22:25;100273.06;;;21.86;50.32
38227;BME280;24026;49.446;8.576;2023-08-31T09:24:46;100268.13;;;21.88;50.10
38227;BME280;24026;49.446;8.576;2023-08-31T09:27:06;100273.22;;;21.89;50.20
38227;BME280;24026;49.446;8.576;2023-08-31T09:29:27;100274.00;;;21.90;50.09
38227;BME280;24026;49.446;8.576;2023-08-31T09:31:47;100269.41;;;21.90;49.97
38227;BME280;24026;49.446;8.576;2023-08-31T09:34:08;100266.69;;;21.90;50.31
38227;BME280;24026;49.446;8.576;2023-08-31T09:36:28;100266.34;;;21.92;50.41
38227;BME280;24026;49.446;8.576;2023-08-31T09:38:49;100270.66;;;21.93;50.22
38227;BME280;24026;49.446;8.576;2023-08-31T09:41:09;100271.44;;;21.93;50.13
38227;BME280;24026;49.446;8.576;2023-08-31T09:43:30;100265.72;;;21.95;50.29
38227;BME280;24026;49.446;8.576;2023-08-31T09:50:34;100269.69;;;21.97;49.69
38227;BME280;24026;49.446;8.576;2023-08-31T09:52:55;100270.47;;;21.98;49.38
38227;BME280;24026;49.446;8.576;2023-08-31T09:55:20;100268.56;;;21.98;48.93
38227;BME280;24026;49.446;8.576;2023-08-31T09:57:41;100276.69;;;21.98;48.74
38227;BME280;24026;49.446;8.576;2023-08-31T10:00:02;100269.38;;;21.99;48.71
38227;BME280;24026;49.446;8.576;2023-08-31T10:02:22;100272.09;;;21.99;48.23
38227;BME280;24026;49.446;8.576;2023-08-31T10:04:43;100272.09;;;21.99;47.94
38227;BME280;24026;49.446;8.576;2023-08-31T10:07:04;100270.16;;;21.99;47.98
38227;BME280;24026;49.446;8.576;2023-08-31T10:09:26;100268.25;;;22.00;47.97
38227;BME280;24026;49.446;8.576;2023-08-31T10:11:46;100275.25;;;22.01;47.77
38227;BME280;24026;49.446;8.576;2023-08-31T10:14:10;100262.50;;;22.01;47.47
38227;BME280;24026;49.446;8.576;2023-08-31T10:16:32;100270.31;;;22.03;47.44
38227;BME280;24026;49.446;8.576;2023-08-31T10:18:53;100267.28;;;22.05;47.12
38227;BME280;24026;49.446;8.576;2023-08-31T10:21:19;100267.75;;;22.07;47.10
38227;BME280;24026;49.446;8.576;2023-08-31T10:23:52;100271.28;;;22.07;46.66
38227;BME280;24026;49.446;8.576;2023-08-31T10:26:25;100270.97;;;22.09;46.66
38227;BME280;24026;49.446;8.576;2023-08-31T10:28:46;100271.41;;;22.11;46.39
38227;BME280;24026;49.446;8.576;2023-08-31T10:31:09;100261.53;;;22.15;46.40
38227;BME280;24026;49.446;8.576;2023-08-31T10:36:17;100262.50;;;22.19;46.40
38227;BME280;24026;49.446;8.576;2023-08-31T10:38:38;100258.66;;;22.20;45.99
38227;BME280;24026;49.446;8.576;2023-08-31T10:43:53;100266.75;;;22.20;45.75
38227;BME280;24026;49.446;8.576;2023-08-31T10:46:36;100262.94;;;22.21;45.81
38227;BME280;24026;49.446;8.576;2023-08-31T10:49:22;100252.91;;;22.21;45.63
38227;BME280;24026;49.446;8.576;2023-08-31T10:51:43;100263.91;;;22.16;46.10
38227;BME280;24026;49.446;8.576;2023-08-31T10:54:24;100257.53;;;22.21;45.53
38227;BME280;24026;49.446;8.576;2023-08-31T10:59:18;100247.84;;;22.29;44.93
38227;BME280;24026;49.446;8.576;2023-08-31T11:01:59;100229.69;;;22.29;44.84
38227;BME280;24026;49.446;8.576;2023-08-31T11:04:26;100239.88;;;22.32;44.42
38227;BME280;24026;49.446;8.576;2023-08-31T11:06:47;100246.53;;;22.35;43.92
38227;BME280;24026;49.446;8.576;2023-08-31T11:09:18;100244.31;;;22.37;43.52
38227;BME280;24026;49.446;8.576;2023-08-31T11:11:39;100243.66;;;22.40;43.41
38227;BME280;24026;49.446;8.576;2023-08-31T11:13:59;100238.72;;;22.42;43.35
38227;BME280;24026;49.446;8.576;2023-08-31T11:16:20;100246.16;;;22.45;43.07
38227;BME280;24026;49.446;8.576;2023-08-31T11:18:41;100240.44;;;22.47;42.79
38227;BME280;24026;49.446;8.576;2023-08-31T11:21:03;100238.22;;;22.49;42.65
38227;BME280;24026;49.446;8.576;2023-08-31T11:23:26;100246.81;;;22.51;42.75
38227;BME280;24026;49.446;8.576;2023-08-31T11:25:47;100240.25;;;22.52;42.84
38227;BME280;24026;49.446;8.576;2023-08-31T11:28:07;100239.47;;;22.51;41.66
38227;BME280;24026;49.446;8.576;2023-08-31T11:30:29;100238.34;;;22.52;41.61
38227;BME280;24026;49.446;8.576;2023-08-31T11:32:52;100243.78;;;22.52;41.73
38227;BME280;24026;49.446;8.576;2023-08-31T11:35:14;100245.34;;;22.53;41.55
38227;BME280;24026;49.446;8.576;2023-08-31T11:37:36;100248.03;;;22.53;41.30
38227;BME280;24026;49.446;8.576;2023-08-31T11:39:58;100239.59;;;22.55;41.27
38227;BME280;24026;49.446;8.576;2023-08-31T11:42:22;100237.72;;;22.55;41.08
38227;BME280;24026;49.446;8.576;2023-08-31T11:44:44;100241.19;;;22.56;40.70
38227;BME280;24026;49.446;8.576;2023-08-31T11:47:07;100240.09;;;22.57;40.61
38227;BME280;24026;49.446;8.576;2023-08-31T11:49:27;100246.28;;;22.57;40.41
38227;BME280;24026;49.446;8.576;2023-08-31T11:51:49;100249.78;;;22.58;40.64
38227;BME280;24026;49.446;8.576;2023-08-31T11:54:11;100249.78;;;22.58;40.52
38227;BME280;24026;49.446;8.576;2023-08-31T11:56:42;100249.00;;;22.57;40.48
38227;BME280;24026;49.446;8.576;2023-08-31T11:59:02;100248.22;;;22.57;39.95
38227;BME280;24026;49.446;8.576;2023-08-31T12:01:23;100248.53;;;22.55;39.74
38227;BME280;24026;49.446;8.576;2023-08-31T12:03:44;100248.88;;;22.54;39.33
38227;BME280;24026;49.446;8.576;2023-08-31T12:06:05;100250.75;;;22.53;39.17
38227;BME280;24026;49.446;8.576;2023-08-31T12:08:27;100249.50;;;22.51;38.76
38227;BME280;24026;49.446;8.576;2023-08-31T12:10:47;100261.91;;;22.52;38.87
38227;BME280;24026;49.446;8.576;2023-08-31T12:13:12;100252.53;;;22.49;39.01
38227;BME280;24026;49.446;8.576;2023-08-31T12:15:33;100256.69;;;22.47;38.71
38227;BME280;24026;49.446;8.576;2023-08-31T12:17:53;100251.25;;;22.47;38.63
38227;BME280;24026;49.446;8.576;2023-08-31T12:20:15;100257.50;;;22.47;38.51
38227;BME280;24026;49.446;8.576;2023-08-31T12:22:36;100249.03;;;22.49;38.71
38227;BME280;24026;49.446;8.576;2023-08-31T12:24:56;100253.31;;;22.50;38.93
38227;BME280;24026;49.446;8.576;2023-08-31T12:27:16;100255.38;;;22.53;38.78
38227;BME280;24026;49.446;8.576;2023-08-31T12:29:37;100245.34;;;22.53;38.86
38227;BME280;24026;49.446;8.576;2023-08-31T12:31:57;100247.72;;;22.55;38.87
38227;BME280;24026;49.446;8.576;2023-08-31T12:34:18;100248.22;;;22.57;38.99
38227;BME280;24026;49.446;8.576;2023-08-31T12:36:38;100235.13;;;22.59;39.28
38227;BME280;24026;49.446;8.576;2023-08-31T12:39:01;100233.69;;;22.62;38.91
38227;BME280;24026;49.446;8.576;2023-08-31T12:41:21;100252.00;;;22.65;38.97
38227;BME280;24026;49.446;8.576;2023-08-31T12:43:42;100245.13;;;22.67;38.94
38227;BME280;24026;49.446;8.576;2023-08-31T12:46:02;100249.41;;;22.68;38.91
38227;BME280;24026;49.446;8.576;2023-08-31T12:48:26;100264.56;;;22.69;39.16
38227;BME280;24026;49.446;8.576;2023-08-31T12:50:47;100253.72;;;22.69;39.00